createdAt,value
2023-03-05T00:01:12.710Z,6.80
2023-03-05T00:03:40.677Z,7.70
2023-03-05T00:06:08.886Z,11.80
2023-03-05T00:08:36.594Z,8.65
2023-03-05T00:11:06.151Z,12.30
2023-03-05T00:13:34.073Z,10.80
2023-03-05T00:16:05.307Z,8.63
2023-03-05T00:18:33.057Z,9.68
2023-03-05T00:21:00.560Z,8.30
2023-03-05T00:23:28.492Z,9.48
2023-03-05T00:25:56.077Z,9.20
2023-03-05T00:28:23.650Z,5.90
2023-03-05T00:30:51.198Z,8.90
2023-03-05T00:33:20.028Z,2.15
2023-03-05T00:35:47.575Z,10.25
2023-03-05T00:38:15.188Z,7.68
2023-03-05T00:40:43.007Z,2.17
2023-03-05T00:43:11.548Z,3.47
2023-03-05T00:45:39.957Z,7.05
2023-03-05T00:48:07.689Z,11.25
2023-03-05T00:50:36.522Z,7.50
2023-03-05T00:53:04.155Z,9.13
2023-03-05T00:55:31.613Z,8.95
2023-03-05T00:57:59.098Z,9.10
2023-03-05T01:00:26.717Z,7.40
2023-03-05T01:02:54.182Z,8.27
2023-03-05T01:05:21.974Z,9.98
2023-03-05T01:07:53.525Z,8.38
2023-03-05T01:10:21.538Z,9.95
2023-03-05T01:12:48.986Z,7.70
2023-03-05T01:15:16.604Z,7.63
2023-03-05T01:17:44.039Z,7.35
2023-03-05T01:20:14.653Z,10.52
2023-03-05T01:22:42.146Z,10.50
2023-03-05T01:25:12.862Z,9.35
2023-03-05T01:27:40.404Z,8.77
2023-03-05T01:30:10.056Z,8.10
2023-03-05T01:32:38.062Z,7.93
2023-03-05T01:35:07.342Z,9.70
2023-03-05T01:37:34.908Z,6.30
2023-03-05T01:40:02.401Z,8.43
2023-03-05T01:42:31.181Z,8.48
2023-03-05T01:45:04.481Z,10.55
2023-03-05T01:47:31.890Z,8.38
2023-03-05T01:50:00.201Z,6.72
2023-03-05T01:52:30.532Z,8.00
2023-03-05T01:55:00.674Z,4.70
2023-03-05T01:57:34.073Z,10.15
2023-03-05T02:00:04.860Z,9.07
2023-03-05T02:02:33.504Z,7.30
2023-03-05T02:05:04.802Z,8.88
2023-03-05T02:07:32.792Z,4.55
2023-03-05T02:10:00.385Z,10.40
2023-03-05T02:12:27.846Z,7.82
2023-03-05T02:14:59.606Z,7.28
2023-03-05T02:17:28.969Z,7.50
2023-03-05T02:20:03.448Z,6.55
2023-03-05T02:22:32.484Z,6.43
2023-03-05T02:27:34.965Z,5.45
2023-03-05T02:32:30.603Z,6.70
2023-03-05T02:34:58.061Z,4.47
2023-03-05T02:37:25.757Z,5.68
2023-03-05T02:39:54.542Z,5.60
2023-03-05T02:42:22.007Z,7.45
2023-03-05T02:44:49.433Z,6.18
2023-03-05T02:47:16.862Z,7.60
2023-03-05T02:49:44.458Z,6.28
2023-03-05T02:52:11.897Z,8.85
2023-03-05T02:54:39.392Z,6.15
2023-03-05T02:57:08.231Z,7.00
2023-03-05T02:59:35.837Z,7.70
2023-03-05T03:02:03.398Z,4.90
2023-03-05T03:04:30.861Z,7.45
2023-03-05T03:06:58.331Z,5.88
2023-03-05T03:09:26.816Z,9.88
2023-03-05T03:11:54.594Z,5.95
2023-03-05T03:14:23.569Z,6.82
2023-03-05T03:16:51.030Z,7.88
2023-03-05T03:19:18.503Z,7.38
2023-03-05T03:21:45.974Z,5.70
2023-03-05T03:24:13.503Z,7.45
2023-03-05T03:26:40.943Z,7.82
2023-03-05T03:29:08.467Z,7.72
2023-03-05T03:31:40.025Z,7.97
2023-03-05T03:34:07.566Z,6.45
2023-03-05T03:36:35.712Z,7.30
2023-03-05T03:39:03.547Z,7.55
2023-03-05T03:41:30.985Z,7.95
2023-03-05T03:43:58.685Z,5.32
2023-03-05T03:46:26.425Z,8.90
2023-03-05T03:48:55.311Z,7.03
2023-03-05T03:51:22.757Z,6.90
2023-03-05T03:53:50.265Z,8.13
2023-03-05T03:56:17.751Z,6.60
2023-03-05T03:58:45.336Z,4.78
2023-03-05T04:01:12.811Z,6.07
2023-03-05T04:03:40.298Z,6.38
2023-03-05T04:06:09.376Z,6.53
2023-03-05T04:11:04.761Z,5.03
2023-03-05T04:13:32.243Z,5.15
2023-03-05T04:15:59.917Z,6.78
2023-03-05T04:18:27.609Z,6.47
2023-03-05T04:20:55.347Z,5.35
2023-03-05T04:23:24.393Z,6.40
2023-03-05T04:28:19.102Z,5.60
2023-03-05T04:30:46.901Z,7.07
2023-03-05T04:33:14.448Z,8.30
2023-03-05T04:35:42.014Z,6.18
2023-03-05T04:38:10.023Z,7.32
2023-03-05T04:40:39.257Z,6.53
2023-03-05T04:43:07.412Z,4.75
2023-03-05T04:45:35.438Z,4.80
2023-03-05T04:48:03.014Z,7.43
2023-03-05T04:50:30.581Z,7.78
2023-03-05T04:52:58.138Z,8.07
2023-03-05T04:55:25.594Z,7.95
2023-03-05T04:57:54.546Z,2.40
2023-03-05T05:00:22.967Z,8.38
2023-03-05T05:02:52.046Z,6.20
2023-03-05T05:07:48.403Z,6.78
2023-03-05T05:10:16.951Z,7.65
2023-03-05T05:12:44.637Z,8.32
2023-03-05T05:15:14.108Z,7.18
2023-03-05T05:17:41.569Z,3.78
2023-03-05T05:20:11.976Z,7.78
2023-03-05T05:22:39.520Z,6.78
2023-03-05T05:25:07.608Z,7.47
2023-03-05T05:27:35.108Z,11.35
2023-03-05T05:30:03.967Z,8.55
2023-03-05T05:32:32.831Z,8.23
2023-03-05T05:35:00.401Z,9.32
2023-03-05T05:37:28.097Z,11.68
2023-03-05T05:39:55.578Z,7.95
2023-03-05T05:42:25.103Z,6.80
2023-03-05T05:44:52.800Z,9.65
2023-03-05T05:47:20.419Z,9.00
2023-03-05T05:49:49.212Z,7.85
2023-03-05T05:52:16.715Z,8.20
2023-03-05T05:54:44.279Z,4.68
2023-03-05T05:57:11.730Z,6.15
2023-03-05T05:59:39.636Z,8.70
2023-03-05T06:02:08.012Z,5.53
2023-03-05T06:04:35.883Z,7.97
2023-03-05T06:07:04.987Z,4.25
2023-03-05T06:11:59.794Z,6.00
2023-03-05T06:14:27.269Z,4.85
2023-03-05T06:16:54.809Z,5.32
2023-03-05T06:19:22.323Z,9.57
2023-03-05T06:21:49.808Z,3.70
2023-03-05T06:24:19.569Z,8.00
2023-03-05T06:26:48.486Z,10.52
2023-03-05T06:29:16.226Z,4.72
2023-03-05T06:31:43.682Z,7.10
2023-03-05T06:34:11.415Z,8.20
2023-03-05T06:36:40.369Z,6.05
2023-03-05T06:39:08.260Z,4.40
2023-03-05T06:41:37.067Z,2.90
2023-03-05T06:44:04.666Z,3.40
2023-03-05T06:46:33.797Z,16.33
2023-03-05T06:49:03.690Z,6.50
2023-03-05T06:51:33.529Z,7.63
2023-03-05T06:54:02.496Z,10.68
2023-03-05T06:56:30.021Z,9.63
2023-03-05T06:58:59.132Z,11.52
2023-03-05T07:01:26.652Z,13.13
2023-03-05T07:03:58.834Z,16.20
2023-03-05T07:06:27.343Z,9.75
2023-03-05T07:08:55.875Z,9.23
2023-03-05T07:11:24.106Z,11.68
2023-03-05T07:13:52.252Z,7.18
2023-03-05T07:16:23.278Z,9.75
2023-03-05T07:18:51.156Z,12.63
2023-03-05T07:21:20.302Z,7.88
2023-03-05T07:23:47.874Z,5.82
2023-03-05T07:26:16.144Z,7.18
2023-03-05T07:28:43.956Z,10.07
2023-03-05T07:31:14.969Z,10.18
2023-03-05T07:33:43.788Z,6.65
2023-03-05T07:36:12.907Z,7.15
2023-03-05T07:41:11.274Z,5.70
2023-03-05T07:43:39.186Z,9.45
2023-03-05T07:46:08.208Z,6.28
2023-03-05T07:48:35.978Z,8.95
2023-03-05T07:51:06.862Z,6.50
2023-03-05T07:53:34.727Z,9.15
2023-03-05T07:56:02.260Z,8.02
2023-03-05T07:58:29.753Z,5.70
2023-03-05T08:00:57.199Z,8.88
2023-03-05T08:03:24.652Z,9.20
2023-03-05T08:05:52.094Z,7.22
2023-03-05T08:08:20.911Z,4.28
2023-03-05T08:10:48.416Z,7.93
2023-03-05T08:13:15.991Z,6.95
2023-03-05T08:15:43.446Z,6.15
2023-03-05T08:18:10.987Z,6.07
2023-03-05T08:20:38.455Z,3.85
2023-03-05T08:23:05.965Z,3.85
2023-03-05T08:25:34.778Z,3.83
2023-03-05T08:28:02.261Z,6.35
2023-03-05T08:30:29.821Z,6.72
2023-03-05T08:32:57.326Z,4.78
2023-03-05T08:35:25.378Z,3.15
2023-03-05T08:37:52.873Z,3.03
2023-03-05T08:40:20.558Z,4.13
2023-03-05T08:42:51.873Z,4.35
2023-03-05T08:45:19.378Z,4.93
2023-03-05T08:47:46.815Z,2.88
2023-03-05T08:50:14.295Z,5.15
2023-03-05T08:52:41.843Z,3.08
2023-03-05T08:55:10.042Z,4.30
2023-03-05T08:57:37.493Z,1.85
2023-03-05T09:00:10.095Z,5.10
2023-03-05T09:02:37.746Z,3.42
2023-03-05T09:05:05.611Z,4.20
2023-03-05T09:07:33.066Z,3.38
2023-03-05T09:10:00.533Z,2.97
2023-03-05T09:12:27.979Z,2.55
2023-03-05T09:14:55.581Z,2.25
2023-03-05T09:17:24.898Z,1.73
2023-03-05T09:19:52.348Z,1.38
2023-03-05T09:22:19.805Z,2.25
2023-03-05T09:24:47.255Z,2.13
2023-03-05T09:27:14.715Z,2.58
2023-03-05T09:29:43.198Z,2.72
2023-03-05T09:32:11.080Z,1.90
2023-03-05T09:34:40.103Z,2.92
2023-03-05T09:39:34.873Z,3.88
2023-03-05T09:42:24.858Z,2.00
2023-03-05T09:45:03.525Z,2.17
2023-03-05T09:47:47.039Z,2.70
2023-03-05T09:50:32.250Z,2.88
2023-03-05T09:53:05.939Z,1.70
2023-03-05T09:55:40.245Z,1.95
2023-03-05T09:58:13.277Z,1.15
2023-03-05T10:00:45.100Z,2.00
2023-03-05T10:03:18.841Z,1.52
2023-03-05T10:05:56.961Z,2.00
2023-03-05T10:08:31.329Z,2.38
2023-03-05T10:11:02.674Z,2.08
2023-03-05T10:13:35.636Z,1.70
2023-03-05T10:16:15.601Z,2.47
2023-03-05T10:18:52.609Z,1.73
2023-03-05T10:21:30.543Z,1.98
2023-03-05T10:24:10.035Z,2.78
2023-03-05T10:26:55.641Z,3.50
2023-03-05T10:29:41.115Z,2.25
2023-03-05T10:32:23.691Z,3.22
2023-03-05T10:35:17.207Z,1.92
2023-03-05T10:38:02.135Z,1.92
2023-03-05T10:40:37.176Z,2.33
2023-03-05T10:43:15.878Z,0.82
2023-03-05T10:45:45.479Z,1.25
2023-03-05T10:48:21.538Z,1.63
2023-03-05T10:50:52.600Z,0.95
2023-03-05T10:53:29.248Z,2.08
2023-03-05T10:55:57.480Z,0.75
2023-03-05T10:58:26.173Z,0.70
2023-03-05T11:01:02.632Z,1.50
2023-03-05T11:03:49.807Z,1.55
2023-03-05T11:06:28.606Z,0.90
2023-03-05T11:08:58.203Z,1.60
2023-03-05T11:11:25.969Z,1.38
2023-03-05T11:13:57.516Z,1.50
2023-03-05T11:16:27.583Z,0.73
2023-03-05T11:19:20.529Z,0.73
2023-03-05T11:22:05.359Z,1.50
2023-03-05T11:24:34.676Z,2.00
2023-03-05T11:27:02.184Z,1.27
2023-03-05T11:29:32.439Z,1.20
2023-03-05T11:32:17.234Z,1.13
2023-03-05T11:34:44.916Z,1.30
2023-03-05T11:37:23.974Z,1.75
2023-03-05T11:40:15.389Z,0.98
2023-03-05T11:42:44.173Z,1.58
2023-03-05T11:45:18.072Z,1.08
2023-03-05T11:47:49.523Z,1.73
2023-03-05T11:50:22.902Z,1.63
2023-03-05T11:52:52.520Z,3.47
2023-03-05T11:55:28.846Z,2.72
2023-03-05T11:58:08.935Z,1.48
2023-03-05T12:00:39.340Z,1.27
2023-03-05T12:03:12.668Z,1.27
2023-03-05T12:05:42.841Z,1.05
2023-03-05T12:08:15.278Z,1.17
2023-03-05T12:10:44.415Z,1.27
2023-03-05T12:13:23.115Z,1.40
2023-03-05T12:16:04.606Z,1.70
2023-03-05T12:18:41.113Z,1.55
2023-03-05T12:21:16.129Z,1.25
2023-03-05T12:23:49.760Z,1.10
2023-03-05T12:26:19.650Z,1.50
2023-03-05T12:28:56.064Z,1.00
2023-03-05T12:31:38.595Z,1.73
2023-03-05T12:34:36.703Z,1.50
2023-03-05T12:37:04.642Z,1.52
2023-03-05T12:39:52.518Z,0.82
2023-03-05T12:42:52.694Z,1.20
2023-03-05T12:45:43.081Z,2.67
2023-03-05T12:48:44.218Z,0.68
2023-03-05T12:51:16.221Z,1.23
2023-03-05T12:53:43.648Z,1.33
2023-03-05T12:56:25.011Z,1.23
2023-03-05T12:58:56.737Z,2.13
2023-03-05T13:01:35.042Z,1.85
2023-03-05T13:04:10.629Z,1.30
2023-03-05T13:06:40.095Z,1.73
2023-03-05T13:09:16.782Z,1.35
2023-03-05T13:11:47.582Z,1.30
2023-03-05T13:14:37.244Z,1.88
2023-03-05T13:17:32.370Z,2.20
2023-03-05T13:20:01.148Z,1.55
2023-03-05T13:22:28.846Z,1.70
2023-03-05T13:25:13.670Z,2.25
2023-03-05T13:27:41.719Z,1.45
2023-03-05T13:30:23.311Z,1.25
2023-03-05T13:32:53.177Z,1.67
2023-03-05T13:35:22.418Z,2.03
2023-03-05T13:37:50.440Z,1.13
2023-03-05T13:40:25.007Z,1.08
2023-03-05T13:42:54.146Z,1.00
2023-03-05T13:45:26.190Z,6.68
2023-03-05T13:47:55.826Z,14.82
2023-03-05T13:50:25.711Z,4.70
2023-03-05T13:52:53.519Z,3.40
2023-03-05T13:55:21.543Z,4.43
2023-03-05T13:57:51.224Z,3.20
2023-03-05T14:00:32.943Z,2.70
2023-03-05T14:03:08.072Z,2.80
2023-03-05T14:10:34.700Z,3.88
2023-03-05T14:13:05.647Z,1.70
2023-03-05T14:15:36.435Z,1.55
2023-03-05T14:18:19.613Z,0.88
2023-03-05T14:21:03.348Z,1.65
2023-03-05T14:23:43.376Z,2.10
2023-03-05T14:26:30.982Z,1.95
2023-03-05T14:29:01.160Z,1.52
2023-03-05T14:31:31.796Z,1.85
2023-03-05T14:34:04.945Z,2.17
2023-03-05T14:36:33.548Z,1.88
2023-03-05T14:39:02.000Z,2.28
2023-03-05T14:41:36.784Z,2.63
2023-03-05T14:44:12.532Z,2.33
2023-03-05T14:46:42.000Z,2.05
2023-03-05T14:49:09.530Z,1.63
2023-03-05T14:51:40.176Z,2.95
2023-03-05T14:54:07.941Z,3.83
2023-03-05T14:56:35.502Z,3.47
2023-03-05T14:59:02.994Z,1.80
2023-03-05T15:01:30.554Z,2.53
2023-03-05T15:04:00.967Z,2.80
2023-03-05T15:06:32.919Z,2.40
2023-03-05T15:09:00.473Z,2.58
2023-03-05T15:11:28.135Z,4.40
2023-03-05T15:13:55.680Z,3.85
2023-03-05T15:16:23.720Z,2.47
2023-03-05T15:18:51.197Z,2.60
2023-03-05T15:21:19.991Z,2.13
2023-03-05T15:23:47.459Z,2.25
2023-03-05T15:26:15.793Z,2.08
2023-03-05T15:28:43.931Z,4.93
2023-03-05T15:31:11.900Z,5.32
2023-03-05T15:33:41.621Z,1.88
2023-03-05T15:36:09.837Z,2.90
2023-03-05T15:38:38.849Z,1.83
2023-03-05T15:43:33.787Z,1.38
2023-03-05T15:46:01.329Z,1.48
2023-03-05T15:48:28.999Z,1.05
2023-03-05T15:50:56.464Z,2.88
2023-03-05T15:53:23.907Z,2.08
2023-03-05T15:55:52.671Z,2.13
2023-03-05T15:58:21.020Z,1.50
2023-03-05T16:00:48.947Z,2.75
2023-03-05T16:03:16.699Z,2.17
2023-03-05T16:05:44.406Z,1.65
2023-03-05T16:08:11.933Z,1.52
2023-03-05T16:10:40.862Z,1.23
2023-03-05T16:13:14.348Z,1.33
2023-03-05T16:15:43.253Z,3.38
2023-03-05T16:20:40.518Z,0.73
2023-03-05T16:23:08.235Z,0.77
2023-03-05T16:25:35.765Z,2.45
2023-03-05T16:28:03.619Z,2.08
2023-03-05T16:30:33.232Z,2.42
2023-03-05T16:33:00.963Z,1.80
2023-03-05T16:35:28.488Z,1.75
2023-03-05T16:37:56.141Z,2.40
2023-03-05T16:40:23.999Z,2.55
2023-03-05T16:42:51.503Z,2.50
2023-03-05T16:45:18.958Z,1.90
2023-03-05T16:47:47.837Z,1.50
2023-03-05T16:50:15.291Z,0.85
2023-03-05T16:52:42.762Z,3.10
2023-03-05T16:55:10.614Z,2.22
2023-03-05T16:57:39.440Z,1.73
2023-03-05T17:00:09.036Z,1.42
2023-03-05T17:02:36.527Z,3.85
2023-03-05T17:05:05.949Z,2.22
2023-03-05T17:07:33.435Z,2.90
2023-03-05T17:10:00.865Z,3.08
2023-03-05T17:12:28.377Z,2.10
2023-03-05T17:14:55.819Z,2.03
2023-03-05T17:17:23.290Z,2.42
2023-03-05T17:19:50.827Z,2.75
2023-03-05T17:22:19.695Z,1.77
2023-03-05T17:24:47.982Z,2.47
2023-03-05T17:27:18.645Z,2.25
2023-03-05T17:29:46.301Z,2.60
2023-03-05T17:32:13.982Z,1.85
2023-03-05T17:34:43.213Z,1.55
2023-03-05T17:37:10.741Z,2.33
2023-03-05T17:39:40.667Z,2.25
2023-03-05T17:42:08.207Z,3.13
2023-03-05T17:44:35.723Z,2.90
2023-03-05T17:47:03.174Z,3.17
2023-03-05T17:49:30.682Z,2.83
2023-03-05T17:51:58.127Z,2.92
2023-03-05T17:54:25.663Z,2.38
2023-03-05T17:56:56.155Z,3.28
2023-03-05T17:59:23.804Z,2.47
2023-03-05T18:01:51.614Z,3.20
2023-03-05T18:04:19.510Z,3.17
2023-03-05T18:06:47.154Z,2.65
2023-03-05T18:09:14.694Z,2.58
2023-03-05T18:11:42.274Z,2.55
2023-03-05T18:14:11.211Z,3.38
2023-03-05T18:24:00.991Z,1.00
2023-03-05T18:26:28.461Z,2.83
2023-03-05T18:28:55.958Z,2.42
2023-03-05T18:31:24.942Z,2.38
2023-03-05T18:41:20.382Z,3.55
2023-03-05T18:43:48.032Z,1.38
2023-03-05T18:46:15.604Z,2.53
2023-03-05T18:48:44.472Z,1.75
2023-03-05T18:51:15.798Z,1.05
2023-03-05T18:53:43.308Z,1.75
2023-03-05T18:56:11.483Z,1.75
2023-03-05T18:58:39.479Z,4.20
2023-03-05T19:01:09.101Z,3.65
2023-03-05T19:03:36.605Z,1.10
2023-03-05T19:06:07.673Z,5.95
2023-03-05T19:08:35.526Z,4.85
2023-03-05T19:11:04.046Z,4.50
2023-03-05T19:13:40.464Z,3.30
2023-03-05T19:16:13.044Z,3.20
2023-03-05T19:19:16.155Z,1.95
2023-03-05T19:21:46.644Z,0.93
2023-03-05T19:24:14.654Z,4.78
2023-03-05T19:26:42.906Z,3.85
2023-03-05T19:29:10.730Z,3.63
2023-03-05T19:31:39.128Z,3.50
2023-03-05T19:34:06.906Z,3.70
2023-03-05T19:36:35.934Z,4.68
2023-03-05T19:39:08.392Z,4.28
2023-03-05T19:41:36.699Z,4.03
2023-03-05T19:44:05.170Z,3.92
2023-03-05T19:46:33.045Z,2.78
2023-03-05T19:49:00.523Z,3.83
2023-03-05T19:51:28.327Z,3.90
2023-03-05T19:53:55.794Z,3.95
2023-03-05T19:56:24.735Z,3.72
2023-03-05T19:58:52.656Z,3.72
2023-03-05T20:01:22.704Z,3.25
2023-03-05T20:03:52.124Z,3.20
2023-03-05T20:06:20.428Z,2.80
2023-03-05T20:08:48.566Z,2.65
2023-03-05T20:11:18.144Z,3.92
2023-03-05T20:13:47.131Z,3.20
2023-03-05T20:16:16.569Z,3.47
2023-03-05T20:18:44.581Z,3.95
2023-03-05T20:21:12.305Z,2.53
2023-03-05T20:23:40.013Z,3.38
2023-03-05T20:26:07.471Z,1.50
2023-03-05T20:28:35.635Z,3.67
2023-03-05T20:31:04.541Z,3.58
2023-03-05T20:33:32.103Z,3.75
2023-03-05T20:36:01.191Z,4.78
2023-03-05T20:38:30.329Z,4.28
2023-03-05T20:40:59.443Z,0.17
2023-03-05T20:43:29.121Z,3.00
2023-03-05T20:45:57.963Z,3.45
2023-03-05T20:48:30.437Z,2.20
2023-03-05T20:51:00.612Z,3.28
2023-03-05T20:53:28.720Z,3.60
2023-03-05T20:55:56.219Z,3.00
2023-03-05T20:58:23.819Z,2.55
2023-03-05T21:00:51.299Z,3.00
2023-03-05T21:03:18.760Z,3.03
2023-03-05T21:05:47.735Z,3.28
2023-03-05T21:10:44.519Z,3.00
2023-03-05T21:13:12.017Z,2.45
2023-03-05T21:15:41.244Z,3.22
2023-03-05T21:18:09.031Z,1.42
2023-03-05T21:20:36.476Z,4.05
2023-03-05T21:23:05.355Z,1.95
2023-03-05T21:25:34.355Z,2.58
2023-03-05T21:30:34.264Z,2.97
2023-03-05T21:33:03.049Z,3.15
2023-03-05T21:35:32.427Z,1.63
2023-03-05T21:37:59.980Z,3.50
2023-03-05T21:40:29.765Z,2.28
2023-03-05T21:42:57.388Z,3.20
2023-03-05T21:45:28.250Z,3.47
2023-03-05T21:47:56.246Z,3.60
2023-03-05T21:50:25.813Z,3.70
2023-03-05T21:52:53.817Z,2.65
2023-03-05T21:55:24.883Z,2.78
2023-03-05T21:57:53.721Z,3.00
2023-03-05T22:00:23.083Z,4.25
2023-03-05T22:02:50.756Z,2.72
2023-03-05T22:05:18.426Z,3.03
2023-03-05T22:07:47.140Z,2.45
2023-03-05T22:10:16.138Z,3.58
2023-03-05T22:15:45.678Z,2.80
2023-03-05T22:18:13.563Z,4.07
2023-03-05T22:20:41.220Z,2.30
2023-03-05T22:23:11.059Z,3.95
2023-03-05T22:25:38.940Z,2.13
2023-03-05T22:28:09.232Z,1.98
2023-03-05T22:30:36.767Z,2.95
2023-03-05T22:33:04.330Z,3.00
2023-03-05T22:35:31.915Z,3.53
2023-03-05T22:37:59.868Z,3.08
2023-03-05T22:40:27.338Z,3.90
2023-03-05T22:42:54.796Z,3.45
2023-03-05T22:45:23.729Z,2.72
2023-03-05T22:47:52.168Z,3.28
2023-03-05T22:50:19.768Z,2.20
2023-03-05T22:52:47.580Z,3.45
2023-03-05T22:55:16.507Z,1.55
2023-03-05T22:57:44.868Z,2.67
2023-03-05T23:00:17.168Z,2.65
2023-03-05T23:02:46.266Z,1.90
2023-03-05T23:07:43.128Z,2.40
2023-03-05T23:10:14.694Z,2.67
2023-03-05T23:12:45.967Z,3.22
2023-03-05T23:15:15.368Z,3.25
2023-03-05T23:17:43.234Z,2.65
2023-03-05T23:20:15.858Z,2.47
2023-03-05T23:22:44.949Z,2.70
2023-03-05T23:25:13.204Z,2.97
2023-03-05T23:27:41.468Z,2.90
2023-03-05T23:30:19.410Z,3.60
2023-03-05T23:32:49.192Z,3.17
2023-03-05T23:35:20.743Z,3.92
2023-03-05T23:37:48.284Z,3.38
2023-03-05T23:40:18.058Z,2.80
2023-03-05T23:42:45.689Z,2.50
2023-03-05T23:45:15.842Z,3.67
2023-03-05T23:47:43.424Z,1.30
2023-03-05T23:50:14.818Z,2.95
2023-03-05T23:52:44.403Z,2.75
2023-03-05T23:55:16.123Z,2.38
2023-03-05T23:57:44.044Z,3.10
